createdAt,value
2023-03-27T00:00:01.150Z,985.29
2023-03-27T00:01:01.194Z,985.30
2023-03-27T00:02:01.143Z,985.31
2023-03-27T00:03:22.168Z,985.29
2023-03-27T00:04:01.189Z,985.33
2023-03-27T00:05:01.062Z,985.31
2023-03-27T00:06:01.051Z,985.37
2023-03-27T00:07:01.037Z,985.41
2023-03-27T00:08:01.016Z,985.43
2023-03-27T00:09:22.022Z,985.47
2023-03-27T00:10:00.977Z,985.49
2023-03-27T00:11:00.971Z,985.54
2023-03-27T00:12:01.049Z,985.53
2023-03-27T00:13:00.923Z,985.57
2023-03-27T00:14:00.912Z,985.55
2023-03-27T00:15:21.903Z,985.58
2023-03-27T00:16:00.872Z,985.58
2023-03-27T00:17:00.899Z,985.66
2023-03-27T00:18:00.852Z,985.66
2023-03-27T00:19:00.834Z,985.67
2023-03-27T00:20:00.800Z,985.70
2023-03-27T00:21:21.788Z,985.68
2023-03-27T00:22:00.770Z,985.73
2023-03-27T00:23:00.754Z,985.78
2023-03-27T00:24:00.737Z,985.80
2023-03-27T00:25:00.761Z,985.80
2023-03-27T00:26:00.693Z,985.83
2023-03-27T00:27:21.683Z,985.88
2023-03-27T00:28:00.649Z,985.89
2023-03-27T00:29:00.664Z,985.97
2023-03-27T00:30:00.624Z,985.90
2023-03-27T00:31:00.780Z,985.97
2023-03-27T00:32:00.706Z,986.00
2023-03-27T00:33:21.681Z,986.11
2023-03-27T00:34:00.652Z,986.08
2023-03-27T00:35:00.639Z,986.13
2023-03-27T00:36:00.654Z,986.13
2023-03-27T00:37:00.508Z,986.14
2023-03-27T00:38:00.475Z,986.22
2023-03-27T00:39:21.478Z,986.20
2023-03-27T00:40:00.447Z,986.20
2023-03-27T00:41:00.611Z,986.22
2023-03-27T00:42:00.414Z,986.24
2023-03-27T00:43:00.414Z,986.22
2023-03-27T00:44:00.385Z,986.28
2023-03-27T00:45:21.358Z,986.31
2023-03-27T00:46:00.350Z,986.31
2023-03-27T00:47:00.326Z,986.41
2023-03-27T00:48:00.369Z,986.41
2023-03-27T00:49:00.281Z,986.45
2023-03-27T00:50:00.269Z,986.46
2023-03-27T00:51:21.267Z,986.40
2023-03-27T00:52:00.243Z,986.45
2023-03-27T00:53:00.221Z,986.42
2023-03-27T00:54:00.197Z,986.44
2023-03-27T00:55:00.170Z,986.47
2023-03-27T00:56:00.172Z,986.46
2023-03-27T00:57:21.139Z,986.48
2023-03-27T00:58:00.174Z,986.44
2023-03-27T00:59:00.108Z,986.54
2023-03-27T01:00:00.144Z,986.54
2023-03-27T01:01:00.095Z,986.53
2023-03-27T01:02:00.130Z,986.55
2023-03-27T01:03:21.134Z,986.53
2023-03-27T01:04:00.032Z,986.56
2023-03-27T01:04:59.996Z,986.57
2023-03-27T01:05:59.986Z,986.57
2023-03-27T01:06:59.955Z,986.56
2023-03-27T01:08:01.610Z,986.61
2023-03-27T01:09:21.391Z,986.63
2023-03-27T01:09:59.902Z,986.60
2023-03-27T01:10:59.888Z,986.59
2023-03-27T01:11:59.856Z,986.65
2023-03-27T01:12:59.857Z,986.65
2023-03-27T01:13:59.844Z,986.73
2023-03-27T01:15:20.815Z,986.73
2023-03-27T01:15:59.844Z,986.74
2023-03-27T01:16:59.773Z,986.80
2023-03-27T01:17:59.774Z,986.77
2023-03-27T01:18:59.752Z,986.84
2023-03-27T01:19:59.714Z,986.84
2023-03-27T01:21:20.721Z,986.88
2023-03-27T01:21:59.681Z,986.89
2023-03-27T01:22:59.670Z,986.92
2023-03-27T01:24:00.853Z,986.97
2023-03-27T01:24:59.626Z,986.95
2023-03-27T01:25:59.607Z,986.99
2023-03-27T01:27:20.609Z,986.99
2023-03-27T01:27:59.638Z,987.01
2023-03-27T01:28:59.551Z,987.00
2023-03-27T01:29:59.540Z,987.07
2023-03-27T01:30:59.659Z,987.05
2023-03-27T01:31:59.513Z,987.09
2023-03-27T01:33:20.479Z,987.12
2023-03-27T01:33:59.461Z,987.15
2023-03-27T01:35:01.947Z,987.16
2023-03-27T01:35:59.453Z,987.19
2023-03-27T01:36:59.410Z,987.19
2023-03-27T01:37:59.385Z,987.25
2023-03-27T01:39:20.391Z,987.28
2023-03-27T01:39:59.352Z,987.25
2023-03-27T01:40:59.353Z,987.31
2023-03-27T01:41:59.332Z,987.34
2023-03-27T01:42:59.330Z,987.33
2023-03-27T01:43:59.297Z,987.35
2023-03-27T01:45:20.265Z,987.36
2023-03-27T01:45:59.246Z,987.39
2023-03-27T01:46:59.249Z,987.38
2023-03-27T01:47:59.231Z,987.40
2023-03-27T01:48:59.199Z,987.43
2023-03-27T01:49:59.177Z,987.43
2023-03-27T01:51:20.155Z,987.53
2023-03-27T01:51:59.147Z,987.46
2023-03-27T01:52:59.126Z,987.50
2023-03-27T01:53:59.117Z,987.51
2023-03-27T01:54:59.080Z,987.57
2023-03-27T01:55:59.065Z,987.64
2023-03-27T01:57:20.054Z,987.67
2023-03-27T01:57:59.027Z,987.67
2023-03-27T01:58:59.009Z,987.73
2023-03-27T02:00:18.808Z,987.80
2023-03-27T02:00:58.998Z,987.83
2023-03-27T02:01:58.967Z,987.82
2023-03-27T02:03:19.951Z,987.88
2023-03-27T02:03:58.936Z,987.90
2023-03-27T02:04:58.982Z,987.94
2023-03-27T02:05:58.879Z,987.94
2023-03-27T02:06:58.965Z,987.99
2023-03-27T02:07:58.960Z,988.04
2023-03-27T02:09:19.960Z,988.08
2023-03-27T02:09:58.921Z,988.10
2023-03-27T02:10:59.130Z,988.07
2023-03-27T02:11:58.898Z,988.15
2023-03-27T02:12:58.874Z,988.15
2023-03-27T02:13:58.748Z,988.14
2023-03-27T02:15:23.723Z,988.17
2023-03-27T02:15:58.727Z,988.13
2023-03-27T02:16:58.682Z,988.14
2023-03-27T02:17:58.737Z,988.15
2023-03-27T02:18:58.644Z,988.17
2023-03-27T02:19:58.632Z,988.20
2023-03-27T02:21:19.606Z,988.16
2023-03-27T02:21:58.590Z,988.19
2023-03-27T02:22:58.574Z,988.20
2023-03-27T02:23:58.559Z,988.23
2023-03-27T02:24:58.531Z,988.24
2023-03-27T02:25:58.526Z,988.21
2023-03-27T02:27:19.502Z,988.24
2023-03-27T02:27:58.487Z,988.23
2023-03-27T02:28:58.454Z,988.23
2023-03-27T02:29:58.444Z,988.23
2023-03-27T02:31:06.787Z,988.24
2023-03-27T02:31:58.492Z,988.27
2023-03-27T02:33:19.412Z,988.29
2023-03-27T02:33:58.381Z,988.32
2023-03-27T02:34:58.370Z,988.39
2023-03-27T02:35:58.374Z,988.40
2023-03-27T02:36:58.329Z,988.41
2023-03-27T02:37:58.297Z,988.43
2023-03-27T02:39:19.267Z,988.42
2023-03-27T02:39:58.258Z,988.41
2023-03-27T02:40:58.431Z,988.44
2023-03-27T02:41:58.221Z,988.45
2023-03-27T02:42:58.210Z,988.48
2023-03-27T02:43:58.190Z,988.53
2023-03-27T02:45:19.167Z,988.55
2023-03-27T02:45:58.244Z,988.58
2023-03-27T02:46:58.121Z,988.55
2023-03-27T02:47:58.156Z,988.58
2023-03-27T02:48:58.082Z,988.65
2023-03-27T02:49:58.070Z,988.69
2023-03-27T02:51:19.054Z,988.69
2023-03-27T02:51:58.032Z,988.73
2023-03-27T02:52:58.007Z,988.77
2023-03-27T02:53:57.998Z,988.83
2023-03-27T02:54:57.989Z,988.87
2023-03-27T02:55:57.962Z,988.91
2023-03-27T02:57:19.008Z,988.90
2023-03-27T02:57:57.933Z,988.95
2023-03-27T02:58:57.929Z,988.91
2023-03-27T02:59:57.890Z,988.93
2023-03-27T03:00:58.099Z,988.94
2023-03-27T03:01:57.911Z,988.98
2023-03-27T03:03:18.915Z,989.02
2023-03-27T03:03:57.839Z,989.07
2023-03-27T03:04:57.817Z,989.06
2023-03-27T03:05:57.786Z,989.09
2023-03-27T03:06:57.756Z,989.13
2023-03-27T03:07:57.753Z,989.10
2023-03-27T03:09:18.722Z,989.15
2023-03-27T03:09:57.716Z,989.14
2023-03-27T03:10:57.787Z,989.12
2023-03-27T03:11:57.668Z,989.14
2023-03-27T03:12:57.652Z,989.17
2023-03-27T03:13:57.663Z,989.12
2023-03-27T03:15:18.643Z,989.20
2023-03-27T03:15:57.606Z,989.20
2023-03-27T03:16:57.596Z,989.29
2023-03-27T03:17:57.606Z,989.34
2023-03-27T03:18:57.558Z,989.40
2023-03-27T03:19:57.522Z,989.41
2023-03-27T03:21:18.505Z,989.43
2023-03-27T03:21:57.488Z,989.46
2023-03-27T03:22:57.474Z,989.47
2023-03-27T03:23:58.626Z,989.52
2023-03-27T03:24:57.431Z,989.53
2023-03-27T03:25:57.405Z,989.54
2023-03-27T03:27:18.385Z,989.57
2023-03-27T03:27:57.359Z,989.57
2023-03-27T03:29:00.640Z,989.59
2023-03-27T03:29:57.332Z,989.64
2023-03-27T03:30:57.497Z,989.68
2023-03-27T03:31:57.284Z,989.70
2023-03-27T03:33:18.279Z,989.77
2023-03-27T03:33:57.265Z,989.78
2023-03-27T03:34:57.230Z,989.83
2023-03-27T03:35:57.261Z,989.84
2023-03-27T03:36:57.218Z,989.86
2023-03-27T03:37:57.177Z,989.92
2023-03-27T03:39:18.151Z,989.92
2023-03-27T03:39:57.140Z,989.94
2023-03-27T03:40:57.355Z,989.98
2023-03-27T03:41:57.098Z,990.01
2023-03-27T03:42:57.074Z,990.05
2023-03-27T03:43:57.064Z,990.12
2023-03-27T03:45:18.033Z,990.13
2023-03-27T03:45:57.048Z,990.13
2023-03-27T03:46:56.998Z,990.13
2023-03-27T03:47:57.017Z,990.18
2023-03-27T03:48:58.957Z,990.17
2023-03-27T03:49:56.938Z,990.23
2023-03-27T03:51:17.926Z,990.24
2023-03-27T03:52:04.515Z,990.30
2023-03-27T03:52:56.879Z,990.31
2023-03-27T03:53:56.854Z,990.31
2023-03-27T03:54:56.951Z,990.39
2023-03-27T03:55:56.928Z,990.37
2023-03-27T03:57:17.957Z,990.40
2023-03-27T03:57:56.886Z,990.39
2023-03-27T03:58:56.864Z,990.46
2023-03-27T03:59:56.845Z,990.46
2023-03-27T04:00:56.944Z,990.45
2023-03-27T04:01:56.838Z,990.44
2023-03-27T04:03:17.914Z,990.47
2023-03-27T04:03:56.816Z,990.52
2023-03-27T04:04:56.803Z,990.50
2023-03-27T04:05:56.739Z,990.54
2023-03-27T04:06:56.711Z,990.55
2023-03-27T04:07:56.705Z,990.62
2023-03-27T04:09:17.592Z,990.62
2023-03-27T04:09:56.665Z,990.65
2023-03-27T04:10:56.783Z,990.64
2023-03-27T04:11:56.524Z,990.62
2023-03-27T04:12:56.529Z,990.66
2023-03-27T04:13:56.487Z,990.73
2023-03-27T04:15:17.458Z,990.77
2023-03-27T04:15:56.473Z,990.76
2023-03-27T04:16:56.429Z,990.80
2023-03-27T04:17:56.462Z,990.85
2023-03-27T04:18:56.444Z,990.86
2023-03-27T04:19:56.367Z,990.89
2023-03-27T04:21:17.346Z,990.93
2023-03-27T04:21:56.354Z,990.93
2023-03-27T04:22:56.298Z,990.94
2023-03-27T04:23:56.281Z,991.02
2023-03-27T04:24:56.254Z,991.02
2023-03-27T04:25:56.262Z,991.05
2023-03-27T04:27:17.220Z,991.06
2023-03-27T04:27:56.205Z,991.08
2023-03-27T04:28:56.195Z,991.13
2023-03-27T04:29:56.167Z,991.07
2023-03-27T04:30:56.310Z,991.12
2023-03-27T04:31:56.130Z,991.22
2023-03-27T04:33:17.104Z,991.26
2023-03-27T04:33:56.085Z,991.27
2023-03-27T04:34:56.067Z,991.28
2023-03-27T04:36:05.942Z,991.32
2023-03-27T04:36:56.021Z,991.26
2023-03-27T04:37:56.011Z,991.27
2023-03-27T04:39:17.035Z,991.28
2023-03-27T04:39:55.968Z,991.33
2023-03-27T04:40:56.242Z,991.32
2023-03-27T04:41:55.950Z,991.32
2023-03-27T04:42:55.968Z,991.32
2023-03-27T04:43:55.898Z,991.39
2023-03-27T04:45:16.881Z,991.38
2023-03-27T04:45:55.853Z,991.41
2023-03-27T04:46:55.886Z,991.43
2023-03-27T04:47:55.842Z,991.48
2023-03-27T04:48:55.788Z,991.48
2023-03-27T04:49:55.775Z,991.52
2023-03-27T04:51:16.770Z,991.53
2023-03-27T04:51:55.740Z,991.51
2023-03-27T04:52:55.713Z,991.57
2023-03-27T04:53:55.707Z,991.56
2023-03-27T04:54:55.678Z,991.58
2023-03-27T04:55:55.669Z,991.62
2023-03-27T04:57:16.773Z,991.62
2023-03-27T04:57:55.618Z,991.64
2023-03-27T04:58:55.603Z,991.72
2023-03-27T04:59:55.575Z,991.71
2023-03-27T05:00:56.142Z,991.73
2023-03-27T05:01:55.538Z,991.74
2023-03-27T05:03:16.568Z,991.74
2023-03-27T05:03:55.539Z,991.78
2023-03-27T05:04:55.484Z,991.81
2023-03-27T05:05:55.468Z,991.82
2023-03-27T05:06:55.459Z,991.81
2023-03-27T05:07:55.416Z,991.86
2023-03-27T05:09:16.420Z,991.89
2023-03-27T05:09:55.382Z,991.92
2023-03-27T05:10:55.451Z,991.96
2023-03-27T05:11:55.363Z,992.02
2023-03-27T05:12:57.196Z,992.00
2023-03-27T05:13:55.298Z,992.06
2023-03-27T05:15:16.295Z,992.08
2023-03-27T05:15:55.266Z,992.10
2023-03-27T05:16:55.244Z,992.11
2023-03-27T05:17:55.278Z,992.16
2023-03-27T05:18:55.192Z,992.18
2023-03-27T05:19:55.172Z,992.22
2023-03-27T05:21:16.257Z,992.24
2023-03-27T05:21:55.142Z,992.24
2023-03-27T05:22:55.142Z,992.30
2023-03-27T05:23:55.103Z,992.32
2023-03-27T05:24:55.106Z,992.36
2023-03-27T05:25:59.944Z,992.38
2023-03-27T05:27:16.036Z,992.44
2023-03-27T05:27:55.074Z,992.45
2023-03-27T05:28:55.014Z,992.46
2023-03-27T05:29:54.985Z,992.46
2023-03-27T05:30:55.276Z,992.49
2023-03-27T05:31:54.946Z,992.52
2023-03-27T05:33:15.927Z,992.52
2023-03-27T05:33:54.922Z,992.52
2023-03-27T05:34:54.890Z,992.55
2023-03-27T05:35:54.912Z,992.53
2023-03-27T05:36:54.843Z,992.59
2023-03-27T05:37:54.833Z,992.62
2023-03-27T05:39:15.801Z,992.66
2023-03-27T05:39:54.785Z,992.66
2023-03-27T05:40:54.883Z,992.70
2023-03-27T05:41:54.748Z,992.72
2023-03-27T05:42:54.731Z,992.75
2023-03-27T05:43:54.706Z,992.73
2023-03-27T05:45:15.684Z,992.79
2023-03-27T05:45:54.801Z,992.81
2023-03-27T05:46:54.651Z,992.82
2023-03-27T05:47:54.671Z,992.85
2023-03-27T05:48:54.593Z,992.86
2023-03-27T05:49:54.581Z,992.83
2023-03-27T05:51:15.570Z,992.92
2023-03-27T05:51:54.542Z,992.92
2023-03-27T05:52:54.517Z,992.92
2023-03-27T05:53:54.517Z,992.88
2023-03-27T05:54:54.473Z,992.94
2023-03-27T05:56:03.208Z,992.91
2023-03-27T05:57:15.492Z,992.92
2023-03-27T05:57:54.433Z,992.95
2023-03-27T05:58:54.399Z,993.01
2023-03-27T05:59:54.378Z,993.02
2023-03-27T06:00:54.584Z,993.07
2023-03-27T06:01:54.339Z,993.12
2023-03-27T06:03:15.436Z,993.10
2023-03-27T06:03:54.388Z,993.14
2023-03-27T06:04:54.317Z,993.16
2023-03-27T06:05:54.262Z,993.14
2023-03-27T06:06:54.238Z,993.17
2023-03-27T06:07:54.211Z,993.20
2023-03-27T06:09:15.201Z,993.22
2023-03-27T06:09:54.185Z,993.21
2023-03-27T06:10:54.312Z,993.29
2023-03-27T06:11:54.135Z,993.29
2023-03-27T06:12:54.128Z,993.31
2023-03-27T06:13:54.119Z,993.31
2023-03-27T06:15:15.107Z,993.35
2023-03-27T06:15:54.246Z,993.38
2023-03-27T06:16:54.040Z,993.40
2023-03-27T06:17:54.034Z,993.43
2023-03-27T06:18:54.006Z,993.46
2023-03-27T06:19:53.981Z,993.49
2023-03-27T06:21:14.971Z,993.50
2023-03-27T06:21:53.952Z,993.56
2023-03-27T06:22:53.928Z,993.58
2023-03-27T06:23:53.909Z,993.61
2023-03-27T06:24:53.906Z,993.61
2023-03-27T06:25:53.948Z,993.62
2023-03-27T06:27:14.844Z,993.67
2023-03-27T06:27:53.848Z,993.73
2023-03-27T06:28:53.809Z,993.79
2023-03-27T06:29:53.783Z,993.80
2023-03-27T06:30:53.824Z,993.82
2023-03-27T06:31:53.765Z,993.80
2023-03-27T06:33:15.666Z,993.86
2023-03-27T06:33:53.708Z,993.91
2023-03-27T06:34:53.696Z,993.90
2023-03-27T06:35:53.886Z,993.98
2023-03-27T06:36:53.667Z,993.99
2023-03-27T06:37:53.660Z,994.03
2023-03-27T06:39:14.624Z,994.06
2023-03-27T06:39:53.589Z,994.10
2023-03-27T06:40:53.590Z,994.08
2023-03-27T06:41:53.555Z,994.08
2023-03-27T06:42:53.536Z,994.14
2023-03-27T06:43:53.565Z,994.09
2023-03-27T06:45:14.516Z,994.13
2023-03-27T06:45:53.516Z,994.15
2023-03-27T06:46:53.490Z,994.17
2023-03-27T06:47:55.310Z,994.20
2023-03-27T06:48:53.452Z,994.24
2023-03-27T06:49:53.410Z,994.25
2023-03-27T06:51:14.401Z,994.23
2023-03-27T06:51:53.370Z,994.27
2023-03-27T06:52:53.348Z,994.24
2023-03-27T06:53:53.340Z,994.25
2023-03-27T06:54:53.318Z,994.22
2023-03-27T06:55:53.292Z,994.26
2023-03-27T06:57:14.372Z,994.24
2023-03-27T06:57:53.267Z,994.31
2023-03-27T06:58:53.282Z,994.32
2023-03-27T06:59:53.219Z,994.34
2023-03-27T07:00:53.310Z,994.37
2023-03-27T07:01:53.313Z,994.35
2023-03-27T07:03:14.333Z,994.42
2023-03-27T07:03:53.239Z,994.41
2023-03-27T07:05:03.637Z,994.40
2023-03-27T07:05:53.265Z,994.45
2023-03-27T07:06:53.199Z,994.46
2023-03-27T07:07:53.170Z,994.48
2023-03-27T07:09:14.071Z,994.52
2023-03-27T07:09:53.136Z,994.51
2023-03-27T07:11:09.955Z,994.52
2023-03-27T07:11:52.990Z,994.56
2023-03-27T07:12:52.988Z,994.59
2023-03-27T07:13:52.957Z,994.61
2023-03-27T07:15:13.947Z,994.60
2023-03-27T07:15:52.963Z,994.64
2023-03-27T07:16:52.996Z,994.65
2023-03-27T07:17:52.894Z,994.66
2023-03-27T07:18:52.888Z,994.68
2023-03-27T07:19:52.845Z,994.71
2023-03-27T07:21:13.840Z,994.75
2023-03-27T07:21:52.817Z,994.78
2023-03-27T07:22:54.111Z,994.82
2023-03-27T07:23:52.782Z,994.78
2023-03-27T07:24:52.764Z,994.83
2023-03-27T07:25:53.000Z,994.87
2023-03-27T07:27:14.024Z,994.87
2023-03-27T07:27:52.714Z,994.88
2023-03-27T07:28:52.689Z,994.93
2023-03-27T07:29:54.334Z,994.95
2023-03-27T07:30:52.655Z,994.95
2023-03-27T07:31:57.407Z,994.97
2023-03-27T07:33:13.690Z,994.98
2023-03-27T07:33:52.667Z,994.96
2023-03-27T07:34:52.580Z,995.02
2023-03-27T07:35:52.633Z,995.02
2023-03-27T07:36:52.545Z,995.06
2023-03-27T07:37:52.524Z,995.13
2023-03-27T07:39:13.516Z,995.17
2023-03-27T07:39:52.482Z,995.18
2023-03-27T07:40:52.537Z,995.17
2023-03-27T07:41:52.462Z,995.19
2023-03-27T07:42:52.476Z,995.22
2023-03-27T07:43:52.434Z,995.23
2023-03-27T07:45:13.419Z,995.28
2023-03-27T07:45:52.402Z,995.33
2023-03-27T07:46:52.383Z,995.31
2023-03-27T07:47:52.399Z,995.33
2023-03-27T07:48:52.390Z,995.35
2023-03-27T07:49:52.325Z,995.36
2023-03-27T07:51:14.373Z,995.33
2023-03-27T07:51:52.292Z,995.40
2023-03-27T07:52:52.302Z,995.42
2023-03-27T07:53:52.277Z,995.49
2023-03-27T07:54:52.263Z,995.53
2023-03-27T07:55:52.241Z,995.49
2023-03-27T07:57:13.325Z,995.51
2023-03-27T07:58:52.190Z,995.48
2023-03-27T07:59:52.167Z,995.50
2023-03-27T08:00:52.178Z,995.53
2023-03-27T08:01:52.139Z,995.52
2023-03-27T08:03:13.289Z,995.60
2023-03-27T08:03:52.250Z,995.55
2023-03-27T08:04:52.245Z,995.65
2023-03-27T08:05:52.103Z,995.58
2023-03-27T08:06:52.073Z,995.61
2023-03-27T08:07:52.056Z,995.63
2023-03-27T08:09:13.054Z,995.67
2023-03-27T08:09:52.041Z,995.68
2023-03-27T08:10:52.009Z,995.71
2023-03-27T08:11:51.982Z,995.67
2023-03-27T08:12:52.023Z,995.64
2023-03-27T08:13:51.954Z,995.62
2023-03-27T08:15:12.947Z,995.67
2023-03-27T08:15:51.920Z,995.67
2023-03-27T08:16:52.154Z,995.68
2023-03-27T08:17:51.908Z,995.75
2023-03-27T08:18:51.878Z,995.70
2023-03-27T08:19:51.852Z,995.73
2023-03-27T08:21:12.861Z,995.72
2023-03-27T08:21:51.831Z,995.81
2023-03-27T08:22:51.811Z,995.74
2023-03-27T08:23:51.797Z,995.73
2023-03-27T08:24:51.776Z,995.75
2023-03-27T08:25:51.782Z,995.76
2023-03-27T08:27:12.755Z,995.76
2023-03-27T08:27:51.728Z,995.78
2023-03-27T08:28:51.734Z,995.79
2023-03-27T08:29:51.703Z,995.80
2023-03-27T08:30:51.705Z,995.83
2023-03-27T08:31:51.684Z,995.88
2023-03-27T08:33:12.654Z,995.82
2023-03-27T08:33:51.637Z,995.87
2023-03-27T08:34:51.629Z,995.86
2023-03-27T08:35:51.739Z,995.84
2023-03-27T08:36:51.698Z,995.87
2023-03-27T08:37:51.694Z,995.93
2023-03-27T08:39:12.667Z,995.92
2023-03-27T08:39:51.643Z,995.94
2023-03-27T08:40:51.539Z,995.97
2023-03-27T08:41:51.506Z,996.01
2023-03-27T08:42:51.503Z,995.96
2023-03-27T08:43:51.483Z,996.04
2023-03-27T08:45:12.489Z,996.06
2023-03-27T08:45:51.469Z,996.10
2023-03-27T08:46:51.547Z,996.09
2023-03-27T08:47:51.439Z,996.10
2023-03-27T08:48:51.464Z,996.07
2023-03-27T08:49:51.401Z,996.11
2023-03-27T08:51:12.407Z,996.09
2023-03-27T08:51:51.399Z,996.11
2023-03-27T08:52:51.369Z,996.13
2023-03-27T08:53:51.343Z,996.09
2023-03-27T08:54:51.337Z,996.10
2023-03-27T08:55:51.333Z,996.13
2023-03-27T08:57:12.320Z,996.12
2023-03-27T08:57:51.298Z,996.12
2023-03-27T08:58:51.285Z,996.13
2023-03-27T08:59:51.271Z,996.11
2023-03-27T09:00:51.273Z,996.11
2023-03-27T09:01:51.279Z,996.08
2023-03-27T09:03:12.332Z,996.12
2023-03-27T09:03:51.316Z,996.16
2023-03-27T09:04:51.201Z,996.15
2023-03-27T09:05:51.184Z,996.15
2023-03-27T09:06:51.186Z,996.19
2023-03-27T09:07:51.163Z,996.21
2023-03-27T09:09:12.156Z,996.20
2023-03-27T09:09:51.138Z,996.25
2023-03-27T09:10:51.166Z,996.27
2023-03-27T09:11:51.131Z,996.28
2023-03-27T09:12:51.095Z,996.29
2023-03-27T09:13:51.114Z,996.31
2023-03-27T09:15:12.075Z,996.26
2023-03-27T09:15:51.113Z,996.24
2023-03-27T09:16:51.038Z,996.27
2023-03-27T09:17:51.055Z,996.32
2023-03-27T09:18:51.018Z,996.27
2023-03-27T09:19:51.018Z,996.27
2023-03-27T09:21:11.998Z,996.31
2023-03-27T09:21:50.976Z,996.27
2023-03-27T09:22:50.959Z,996.27
2023-03-27T09:23:50.934Z,996.35
2023-03-27T09:24:50.936Z,996.33
2023-03-27T09:25:50.918Z,996.28
2023-03-27T09:27:11.905Z,996.34
2023-03-27T09:27:50.891Z,996.35
2023-03-27T09:28:50.892Z,996.39
2023-03-27T09:29:50.872Z,996.37
2023-03-27T09:30:50.848Z,996.41
2023-03-27T09:31:50.896Z,996.37
2023-03-27T09:33:11.893Z,996.38
2023-03-27T09:33:50.817Z,996.37
2023-03-27T09:34:50.902Z,996.42
2023-03-27T09:35:50.920Z,996.38
2023-03-27T09:36:50.890Z,996.42
2023-03-27T09:37:50.860Z,996.40
2023-03-27T09:39:11.763Z,996.36
2023-03-27T09:39:50.778Z,996.40
2023-03-27T09:40:50.730Z,996.38
2023-03-27T09:41:50.720Z,996.41
2023-03-27T09:42:50.776Z,996.39
2023-03-27T09:43:50.702Z,996.42
2023-03-27T09:45:11.703Z,996.44
2023-03-27T09:45:50.678Z,996.48
2023-03-27T09:46:50.775Z,996.56
2023-03-27T09:47:50.707Z,996.49
2023-03-27T09:48:50.668Z,996.50
2023-03-27T09:49:50.666Z,996.45
2023-03-27T09:51:11.658Z,996.43
2023-03-27T09:51:50.641Z,996.47
2023-03-27T09:52:50.626Z,996.47
2023-03-27T09:53:50.633Z,996.49
2023-03-27T09:54:50.617Z,996.46
2023-03-27T09:55:50.688Z,996.46
2023-03-27T09:57:11.667Z,996.45
2023-03-27T09:57:50.604Z,996.48
2023-03-27T09:58:50.574Z,996.49
2023-03-27T09:59:50.561Z,996.43
2023-03-27T10:00:50.584Z,996.51
2023-03-27T10:01:50.558Z,996.50
2023-03-27T10:03:11.592Z,996.49
2023-03-27T10:03:50.543Z,996.47
2023-03-27T10:04:50.528Z,996.53
2023-03-27T10:05:50.514Z,996.56
2023-03-27T10:06:50.529Z,996.52
2023-03-27T10:07:50.506Z,996.56
2023-03-27T10:09:11.500Z,996.53
2023-03-27T10:09:50.489Z,996.55
2023-03-27T10:10:50.481Z,996.46
2023-03-27T10:11:50.524Z,996.47
2023-03-27T10:12:50.483Z,996.43
2023-03-27T10:13:50.466Z,996.43
2023-03-27T10:15:11.467Z,996.43
2023-03-27T10:15:50.455Z,996.42
2023-03-27T10:16:50.460Z,996.44
2023-03-27T10:17:50.503Z,996.42
2023-03-27T10:18:50.420Z,996.43
2023-03-27T10:19:50.551Z,996.47
2023-03-27T10:21:11.511Z,996.48
2023-03-27T10:21:50.508Z,996.49
2023-03-27T10:22:51.550Z,996.47
2023-03-27T10:23:50.436Z,996.48
2023-03-27T10:24:50.392Z,996.57
2023-03-27T10:25:50.396Z,996.55
2023-03-27T10:27:11.376Z,996.47
2023-03-27T10:27:50.398Z,996.43
2023-03-27T10:28:50.374Z,996.50
2023-03-27T10:29:50.361Z,996.48
2023-03-27T10:30:50.339Z,996.55
2023-03-27T10:31:50.375Z,996.56
2023-03-27T10:33:11.422Z,996.50
2023-03-27T10:33:50.318Z,996.47
2023-03-27T10:34:50.312Z,996.51
2023-03-27T10:35:50.328Z,996.58
2023-03-27T10:36:50.288Z,996.58
2023-03-27T10:37:50.923Z,996.54
2023-03-27T10:39:11.297Z,996.50
2023-03-27T10:39:50.261Z,996.51
2023-03-27T10:40:50.269Z,996.46
2023-03-27T10:41:50.239Z,996.52
2023-03-27T10:42:50.238Z,996.50
2023-03-27T10:43:50.263Z,996.49
2023-03-27T10:45:11.212Z,996.44
2023-03-27T10:45:50.235Z,996.50
2023-03-27T10:46:50.186Z,996.58
2023-03-27T10:47:50.246Z,996.60
2023-03-27T10:48:50.166Z,996.55
2023-03-27T10:49:50.179Z,996.62
2023-03-27T10:51:11.151Z,996.61
2023-03-27T10:51:50.138Z,996.49
2023-03-27T10:52:50.158Z,996.69
2023-03-27T10:53:50.204Z,996.76
2023-03-27T10:54:50.107Z,996.67
2023-03-27T10:55:50.112Z,996.72
2023-03-27T10:57:11.175Z,996.70
2023-03-27T10:57:50.089Z,996.73
2023-03-27T10:58:50.075Z,996.77
2023-03-27T10:59:50.073Z,996.83
2023-03-27T11:00:50.169Z,996.81
2023-03-27T11:01:50.199Z,996.79
2023-03-27T11:03:11.121Z,996.85
2023-03-27T11:03:50.292Z,996.83
2023-03-27T11:04:50.069Z,996.81
2023-03-27T11:05:50.044Z,996.80
2023-03-27T11:06:50.028Z,996.84
2023-03-27T11:07:50.045Z,996.75
2023-03-27T11:09:11.017Z,996.76
2023-03-27T11:09:50.020Z,996.74
2023-03-27T11:10:50.013Z,996.80
2023-03-27T11:11:50.022Z,996.85
2023-03-27T11:12:50.049Z,996.84
2023-03-27T11:13:50.013Z,996.84
2023-03-27T11:15:11.014Z,996.81
2023-03-27T11:15:50.003Z,996.85
2023-03-27T11:16:50.223Z,996.90
2023-03-27T11:17:50.003Z,996.90
2023-03-27T11:18:49.988Z,996.90
2023-03-27T11:19:49.977Z,996.86
2023-03-27T11:21:10.987Z,996.86
2023-03-27T11:21:49.976Z,996.85
2023-03-27T11:22:49.964Z,996.82
2023-03-27T11:23:50.080Z,996.83
2023-03-27T11:24:49.949Z,996.88
2023-03-27T11:25:49.958Z,996.88
2023-03-27T11:27:12.296Z,996.91
2023-03-27T11:27:49.923Z,996.91
2023-03-27T11:28:49.918Z,996.97
2023-03-27T11:29:49.940Z,996.97
2023-03-27T11:30:49.962Z,996.94
2023-03-27T11:31:49.948Z,997.03
2023-03-27T11:33:10.946Z,996.99
2023-03-27T11:33:49.908Z,997.08
2023-03-27T11:34:49.861Z,997.13
2023-03-27T11:35:49.902Z,997.17
2023-03-27T11:36:49.852Z,997.21
2023-03-27T11:37:49.935Z,997.18
2023-03-27T11:39:10.961Z,997.22
2023-03-27T11:39:49.947Z,997.18
2023-03-27T11:40:49.934Z,997.25
2023-03-27T11:41:49.845Z,997.22
2023-03-27T11:42:49.823Z,997.18
2023-03-27T11:43:49.836Z,997.17
2023-03-27T11:45:10.818Z,997.20
2023-03-27T11:45:49.913Z,997.18
2023-03-27T11:46:49.804Z,997.15
2023-03-27T11:47:49.826Z,997.15
2023-03-27T11:48:49.797Z,997.16
2023-03-27T11:49:49.806Z,997.25
2023-03-27T11:51:10.807Z,997.16
2023-03-27T11:51:49.828Z,997.20
2023-03-27T11:52:49.797Z,997.22
2023-03-27T11:53:49.785Z,997.21
2023-03-27T11:54:49.801Z,997.23
2023-03-27T11:55:49.794Z,997.20
2023-03-27T11:57:11.135Z,997.13
2023-03-27T11:57:49.841Z,997.19
2023-03-27T11:58:49.778Z,997.21
2023-03-27T11:59:49.783Z,997.14
2023-03-27T12:00:49.764Z,997.15
2023-03-27T12:01:49.811Z,997.15
2023-03-27T12:03:10.824Z,997.13
2023-03-27T12:03:49.839Z,997.16
2023-03-27T12:04:49.790Z,997.17
2023-03-27T12:05:49.765Z,997.14
2023-03-27T12:06:49.762Z,997.14
2023-03-27T12:07:49.758Z,997.11
2023-03-27T12:09:10.761Z,997.10
2023-03-27T12:09:49.751Z,997.18
2023-03-27T12:10:49.742Z,997.14
2023-03-27T12:11:49.740Z,997.22
2023-03-27T12:12:49.766Z,997.17
2023-03-27T12:13:58.068Z,997.17
2023-03-27T12:15:10.855Z,997.18
2023-03-27T12:15:49.841Z,997.15
2023-03-27T12:16:49.840Z,997.16
2023-03-27T12:17:49.760Z,997.10
2023-03-27T12:19:02.213Z,997.07
2023-03-27T12:19:49.712Z,997.11
2023-03-27T12:21:10.758Z,997.09
2023-03-27T12:21:49.724Z,997.08
2023-03-27T12:22:49.747Z,996.99
2023-03-27T12:23:51.011Z,997.00
2023-03-27T12:24:57.406Z,997.02
2023-03-27T12:25:49.705Z,997.03
2023-03-27T12:27:10.690Z,997.05
2023-03-27T12:27:49.725Z,997.08
2023-03-27T12:28:49.665Z,997.11